ADDS METAR Data INFO
IDs: Format: Raw Decoded Include TAF

Data at: 1118 UTC 21 Feb 2018

PAIW 201456Z AUTO 20035G43KT 8SM BKN027 BKN031 M01/M03 A2981 RMK AO2 PK WND 19045/1405 SLP098 60000 T10061028 53022 FZRANO
PAIW 201443Z AUTO 19037G44KT 8SM BKN027 M01/M03 A2981 RMK AO2 PK WND 19045/1405 FZRANO
PAIW 201356Z AUTO 20037G44KT 8SM SCT023 M01/M03 A2979 RMK AO2 PK WND 19049/1316 SLP088 T10061028 FZRANO
PAIW 201256Z AUTO 19035G43KT 7SM FEW027 M01/M03 A2977 RMK AO2 PK WND 19043/1252 SNE1159 SLP084 P0000 T10061028 FZRANO
PAIW 201203Z AUTO 19032G41KT 7SM SCT024 M01/M03 A2976 RMK AO2 PK WND 19041/1200 SNE1159 P0000 FZRANO
PAIW 201156Z AUTO 19035G42KT 7SM -SN BKN024 M01/M03 A2975 RMK AO2 PK WND 19045/1138 SLP076 P0000 60000 70152 T10061028 10006 21011 53010 FZRANO
PAIW 201131Z AUTO 19035G44KT 7SM -SN FEW008 SCT011 BKN024 M01/M02 A2974 RMK AO2 PK WND 19044/1124 P0000 FZRANO
PAIW 201124Z AUTO 19038G44KT 2 1/2SM -SN BR SCT008 BKN015 OVC024 M01/M02 A2974 RMK AO2 PK WND 19044/1124 P0000 FZRANO
PAIW 201121Z AUTO 19034G43KT 1 1/4SM -SN BR BKN008 BKN015 OVC024 M01/M02 A2973 RMK AO2 PK WND 18044/1101 CIG 005V011 P0000 FZRANO
PAIW 201114Z AUTO 19034G42KT 3/4SM -SN BR BKN008 OVC013 M01/M02 A2973 RMK AO2 PK WND 18044/1101 CIG 005V011 P0000 FZRANO
PAIW 201056Z AUTO 19031G39KT 1/2SM SN FZFG OVC008 M01/M02 A2973 RMK AO2 PK WND 19039/1056 SNB23 CIG 005V012 SLP070 P0000 T10111017 FZRANO
PAIW 201041Z AUTO 19030G39KT 1/2SM SN FZFG BKN008 OVC017 M01/M02 A2973 RMK AO2 PK WND 18039/1038 SNB23 CIG 006V012 P0000 FZRANO
PAIW 201036Z AUTO 19033G38KT 3/4SM -SN BR FEW010 BKN017 BKN025 M01/M02 A2974 RMK AO2 PK WND 18039/1005 SNB23 P0000 FZRANO
PAIW 201032Z AUTO 19032G38KT 1 3/4SM -SN BR BKN017 BKN025 M01/M03 A2973 RMK AO2 PK WND 18039/1005 SNB23 P0000 FZRANO
PAIW 201028Z AUTO 19030G37KT 5SM -SN BR BKN019 BKN025 BKN070 M01/M03 A2973 RMK AO2 PK WND 18039/1005 SNB23 P0000 FZRANO
PAIW 200956Z AUTO 18030G38KT 8SM FEW021 M01/M03 A2973 RMK AO2 PK WND 17043/0934 SLP068 T10111028 FZRANO
PAIW 200904Z AUTO 17034G42KT 8SM SCT022 BKN110 M01/M03 A2972 RMK AO2 PK WND 18042/0903 FZRANO
PAIW 200856Z AUTO 17033G41KT 8SM BKN022 OVC110 M01/M02 A2972 RMK AO2 PK WND 17042/0821 SLP066 60000 T10061022 400061006 53013 FZRANO
PAIW 200819Z AUTO 17034G42KT 7SM BKN022 00/M02 A2972 RMK AO2 PK WND 18042/0814 FZRANO
PAIW 200756Z AUTO 17034G39KT 7SM CLR 00/M02 A2971 RMK AO2 PK WND 17043/0702 UPE16 SLP061 P0000 T00001022 FZRANO
PAIW 200739Z AUTO 17034G41KT 7SM SCT020 00/M02 A2971 RMK AO2 PK WND 17043/0702 UPE16 P0000 FZRANO
PAIW 200724Z AUTO 17034G40KT 7SM BKN020 00/M02 A2970 RMK AO2 PK WND 17043/0702 UPE16 P0000 FZRANO
PAIW 200656Z AUTO 17036G43KT 6SM UP BR CLR 00/M01 A2969 RMK AO2 PK WND 17046/0627 UPB01 SLP056 P0000 T00001011 FZRANO
PAIW 200556Z AUTO 17036G41KT 6SM BR FEW011 00/M01 A2968 RMK AO2 PK WND 17041/0554 SLP054 60141 T00001006 10006 20000 53018 FZRANO
PAIW 200524Z AUTO 17032G36KT 7SM SCT008 01/M01 A2967 RMK AO2 PK WND 17038/0509 FZRANO
PAIW 200456Z AUTO 17034G42KT 7SM OVC006 01/00 A2967 RMK AO2 PK WND 16043/0401 SLP047 T00060000 FZRANO
PAIW 200410Z AUTO 17032G43KT 5SM BR OVC006 01/00 A2965 RMK AO2 PK WND 16043/0401 FZRANO
PAIW 200356Z AUTO 17036G42KT 5SM BR OVC004 01/00 A2964 RMK AO2 PK WND 16044/0306 UPE23 SLP040 P0000 T00060000 FZRANO
PAIW 200323Z AUTO 16037G43KT 3SM BR OVC004 01/00 A2963 RMK AO2 PK WND 16044/0306 UPE23 P0000 FZRANO
PAIW 200256Z AUTO 16036G45KT 2SM UP BR OVC004 00/00 A2963 RMK AO2 PK WND 16051/0219 SNB15E29 SLP035 P0141 60141 T00000000 51009 FZRANO
PAIW 200253Z AUTO 16038G48KT 1 3/4SM UP BR OVC004 00/00 A2963 RMK AO2 PK WND 16051/0219 SNB15E29 P0141 FZRANO
PAIW 200243Z AUTO 16040G48KT 1 3/4SM UP BR OVC006 00/00 A2963 RMK AO2 PK WND 16051/0219 SNB15E29 CIG 004V010 P0141 FZRANO
PAIW 200056Z AUTO 15039G51KT 1 1/2SM UP BR OVC008 00/00 A2961 RMK AO2 PK WND 17053/0027 SLP027 P0000 T00000000 FZRANO
PAIW 200015Z AUTO 15037G52KT 1 1/2SM UP BR OVC008 00/00 A2962 RMK AO2 PK WND 14052/0011 VIS 1V2 P0000 FZRANO
PAIW 192356Z AUTO 15040G46KT 1 1/2SM UP BR BKN010 OVC015 00/00 A2963 RMK AO2 PK WND 15051/2311 UPB36SNE36 CIG 008V012 SLP035 P0000 60003 T00000000 10000 20000 56008 FZRANO
PAIW 192351Z AUTO 15037G46KT 1 1/2SM UP BR BKN010 OVC018 00/00 A2963 RMK AO2 PK WND 15051/2311 UPB36SNE36 CIG 008V013 P0000 FZRANO
PAIW 192341Z AUTO 15038G48KT 1SM UP BR BKN013 OVC018 00/00 A2964 RMK AO2 PK WND 15051/2311 UPB36SNE36 P0000 FZRANO